Time;durP1;ratioP1;P1;durP2;ratioP2;P2;SDS_P1;SDS_P2;PMS_P1;PMS_P2;Temp;Humidity;BMP_temperature;BMP_pressure;BME280_temperature;BME280_humidity;BME280_pressure;Samples;Min_cycle;Max_cycle;Signal;HPM_P1;HPM_P2
2022/05/05 00:02:27;;;;;;;11.57;10.67;;;13.20;99.90;;;;;;5154863;27;20532;-58
2022/05/05 00:04:54;;;;;;;10.20;9.30;;;13.20;99.90;;;;;;5154762;27;20451;-58
2022/05/05 00:07:21;;;;;;;10.40;9.40;;;13.20;99.90;;;;;;5154648;27;20453;-58
2022/05/05 00:09:48;;;;;;;10.23;9.23;;;13.30;99.90;;;;;;5154439;27;20472;-58
2022/05/05 00:15:00;;;;;;;11.03;9.27;;;13.30;99.90;;;;;;5158432;27;20769;-57
2022/05/05 00:17:28;;;;;;;11.23;10.33;;;13.40;99.90;;;;;;5158476;27;20448;-57
2022/05/05 00:19:55;;;;;;;9.73;8.90;;;13.40;99.90;;;;;;5158417;27;20528;-57
2022/05/05 00:22:23;;;;;;;10.00;9.10;;;13.30;99.90;;;;;;5158220;27;20421;-57
2022/05/05 00:24:50;;;;;;;10.83;9.90;;;13.40;99.90;;;;;;5157945;27;20452;-57
2022/05/05 00:27:17;;;;;;;10.37;9.47;;;13.30;99.90;;;;;;5158120;27;20448;-57
2022/05/05 00:29:44;;;;;;;10.50;9.40;;;13.30;99.90;;;;;;5157693;27;20543;-58
2022/05/05 00:32:12;;;;;;;10.47;9.57;;;13.40;99.90;;;;;;5158063;27;20448;-58
2022/05/05 00:34:40;;;;;;;11.90;10.70;;;13.40;99.90;;;;;;5157816;27;20801;-58
2022/05/05 00:37:07;;;;;;;13.33;11.53;;;13.40;99.90;;;;;;5157737;27;20950;-57
2022/05/05 00:39:35;;;;;;;12.97;10.90;;;13.40;99.90;;;;;;5157976;27;20482;-57
2022/05/05 00:42:02;;;;;;;10.73;9.83;;;13.50;99.90;;;;;;5157639;27;20532;-57
2022/05/05 00:44:29;;;;;;;12.53;11.43;;;13.50;99.90;;;;;;5157723;27;20536;-58
2022/05/05 00:46:57;;;;;;;13.70;12.40;;;13.50;99.90;;;;;;5157597;27;20441;-58
2022/05/05 00:49:25;;;;;;;12.10;11.00;;;13.50;99.90;;;;;;5157814;27;20464;-58
2022/05/05 00:51:54;;;;;;;14.20;12.80;;;13.40;99.90;;;;;;5157844;27;20481;-58
2022/05/05 00:54:21;;;;;;;12.17;11.03;;;13.30;99.90;;;;;;5157469;27;20495;-58
2022/05/05 00:56:48;;;;;;;12.33;11.23;;;13.20;99.90;;;;;;5157367;27;20443;-58
2022/05/05 00:59:16;;;;;;;11.57;10.50;;;13.20;99.90;;;;;;5157669;27;20547;-58
2022/05/05 01:01:43;;;;;;;12.17;11.07;;;13.20;99.90;;;;;;5157306;27;20448;-58
2022/05/05 01:04:10;;;;;;;12.37;11.27;;;13.20;99.90;;;;;;5157150;27;20540;-58
2022/05/05 01:06:38;;;;;;;12.63;11.43;;;13.30;99.90;;;;;;5157650;27;20523;-57
2022/05/05 01:09:07;;;;;;;12.40;11.10;;;13.20;99.90;;;;;;5157534;27;20472;-58
2022/05/05 01:11:34;;;;;;;13.77;12.27;;;13.20;99.90;;;;;;5157295;27;20480;-58
2022/05/05 01:14:01;;;;;;;13.00;11.70;;;13.20;99.90;;;;;;5157358;27;20445;-58
2022/05/05 01:16:29;;;;;;;11.80;10.70;;;13.10;99.90;;;;;;5157417;27;20447;-58
2022/05/05 01:18:57;;;;;;;11.40;10.20;;;13.20;99.90;;;;;;5157158;27;20464;-57
2022/05/05 01:21:25;;;;;;;12.00;10.60;;;13.20;99.90;;;;;;5157247;27;20443;-57
2022/05/05 01:23:52;;;;;;;12.57;11.37;;;13.20;99.90;;;;;;5156001;27;20922;-58
2022/05/05 01:29:06;;;;;;;11.63;10.53;;;13.20;99.90;;;;;;5156500;27;20601;-58
2022/05/05 01:31:33;;;;;;;11.30;10.10;;;13.20;99.90;;;;;;5156582;27;20480;-58
2022/05/05 01:34:00;;;;;;;12.40;10.33;;;13.10;99.90;;;;;;5157005;27;20444;-58
2022/05/05 01:36:29;;;;;;;12.23;11.13;;;13.20;99.90;;;;;;5156902;27;20459;-58
2022/05/05 01:38:56;;;;;;;12.40;11.10;;;13.20;99.90;;;;;;5156923;27;20472;-58
2022/05/05 01:41:23;;;;;;;15.70;11.10;;;13.20;99.90;;;;;;5156610;27;20474;-58
2022/05/05 01:43:50;;;;;;;10.70;9.70;;;13.30;99.90;;;;;;5156470;27;20957;-58
2022/05/05 01:46:17;;;;;;;10.70;9.80;;;13.20;99.90;;;;;;5156429;27;20493;-57
2022/05/05 01:48:44;;;;;;;10.60;9.60;;;13.10;99.90;;;;;;5156710;27;20457;-57
2022/05/05 01:51:11;;;;;;;13.43;10.33;;;13.00;99.90;;;;;;5156551;27;20525;-57
2022/05/05 01:53:40;;;;;;;10.43;9.43;;;13.00;99.90;;;;;;5156374;27;20429;-58
2022/05/05 01:56:11;;;;;;;10.30;9.30;;;13.00;99.90;;;;;;5156847;27;20519;-58
2022/05/05 01:58:41;;;;;;;9.60;8.70;;;13.10;99.90;;;;;;5156235;27;20544;-58
2022/05/05 02:01:09;;;;;;;12.20;9.43;;;13.10;99.90;;;;;;5156461;27;20421;-58
2022/05/05 02:03:36;;;;;;;10.90;9.77;;;13.10;99.90;;;;;;5156360;27;20444;-58
2022/05/05 02:06:03;;;;;;;10.80;9.77;;;13.00;99.90;;;;;;5156349;27;20463;-58
2022/05/05 02:08:30;;;;;;;10.20;9.20;;;13.10;99.90;;;;;;5156343;27;20536;-58
2022/05/05 02:10:59;;;;;;;14.13;10.40;;;13.10;99.90;;;;;;5156163;27;20525;-58
2022/05/05 02:13:26;;;;;;;11.33;10.13;;;13.10;99.90;;;;;;5156312;27;20448;-57
2022/05/05 02:15:53;;;;;;;11.33;10.20;;;13.20;99.90;;;;;;5155850;27;20976;-57
2022/05/05 02:18:20;;;;;;;11.60;10.50;;;13.30;99.90;;;;;;5155726;27;20966;-57
2022/05/05 02:20:48;;;;;;;10.53;9.53;;;13.30;99.90;;;;;;5156141;27;20440;-58
2022/05/05 02:23:15;;;;;;;11.63;9.37;;;13.10;99.90;;;;;;5155762;27;20767;-57
2022/05/05 02:25:42;;;;;;;11.00;8.70;;;13.10;99.90;;;;;;5155923;27;20445;-57
2022/05/05 02:28:11;;;;;;;9.77;8.87;;;13.00;99.90;;;;;;5154583;27;20487;-57
2022/05/05 02:30:38;;;;;;;12.37;8.23;;;13.00;99.90;;;;;;5155763;27;20476;-58
2022/05/05 02:33:05;;;;;;;10.33;9.33;;;13.10;99.90;;;;;;5155566;27;20784;-58
2022/05/05 02:35:33;;;;;;;11.40;10.40;;;13.10;99.90;;;;;;5155183;27;20951;-57
2022/05/05 02:40:44;;;;;;;10.40;9.40;;;13.20;99.90;;;;;;5155555;27;20932;-58
2022/05/05 02:43:13;;;;;;;9.87;8.97;;;13.10;99.90;;;;;;5155415;27;20430;-57
2022/05/05 02:45:40;;;;;;;11.53;9.57;;;13.20;99.90;;;;;;5155329;27;20441;-57
2022/05/05 02:48:08;;;;;;;10.67;9.67;;;13.10;99.90;;;;;;5155596;27;20456;-57
2022/05/05 02:50:35;;;;;;;10.43;9.53;;;12.90;99.90;;;;;;5155458;27;20488;-58
2022/05/05 02:54:46;;;;;;;11.57;8.97;;;12.80;99.90;;;;;;5155481;27;20459;-58
2022/05/05 02:55:49;;;;;;;10.47;9.57;;;12.90;99.90;;;;;;5155143;27;20424;-57
2022/05/05 02:58:17;;;;;;;13.23;9.83;;;13.00;99.90;;;;;;5155130;27;21030;-57
2022/05/05 03:00:44;;;;;;;11.70;10.70;;;13.00;99.90;;;;;;5155057;27;20437;-57
2022/05/05 03:03:11;;;;;;;12.30;10.97;;;13.00;99.90;;;;;;5155081;27;20451;-58
2022/05/05 03:05:39;;;;;;;12.23;10.87;;;12.90;99.90;;;;;;5155400;27;20543;-58
2022/05/05 03:08:07;;;;;;;12.13;10.90;;;12.90;99.90;;;;;;5155214;27;20468;-58
2022/05/05 03:10:34;;;;;;;12.40;11.20;;;12.80;99.90;;;;;;5154952;27;20469;-58
2022/05/05 03:13:01;;;;;;;11.63;10.53;;;12.80;99.90;;;;;;5155367;27;20444;-58
2022/05/05 03:15:30;;;;;;;13.30;11.90;;;12.80;99.90;;;;;;5155249;27;20441;-58
2022/05/05 03:17:57;;;;;;;11.83;10.73;;;12.70;99.90;;;;;;5154874;27;20468;-58
2022/05/05 03:20:24;;;;;;;13.40;12.10;;;12.80;99.90;;;;;;5154971;27;20447;-58
2022/05/05 03:22:51;;;;;;;11.97;10.07;;;12.70;99.90;;;;;;5154880;27;20445;-58
2022/05/05 03:25:19;;;;;;;12.90;10.07;;;12.80;99.90;;;;;;5154829;27;20451;-58
2022/05/05 03:27:46;;;;;;;13.30;11.93;;;12.70;99.90;;;;;;5154949;27;20452;-58
2022/05/05 03:30:13;;;;;;;13.37;10.50;;;12.70;99.90;;;;;;5155106;27;20444;-58
2022/05/05 03:32:42;;;;;;;10.67;9.57;;;12.70;99.90;;;;;;5154956;27;20479;-57
2022/05/05 03:35:10;;;;;;;12.10;9.30;;;12.60;99.90;;;;;;5155121;27;20529;-56
2022/05/05 03:37:37;;;;;;;9.77;8.97;;;12.60;99.90;;;;;;5154747;27;20568;-58
2022/05/05 03:40:05;;;;;;;12.20;11.00;;;12.70;99.90;;;;;;5154707;27;20443;-57
2022/05/05 03:42:32;;;;;;;10.20;9.30;;;12.60;99.90;;;;;;5154958;27;20433;-57
2022/05/05 03:44:59;;;;;;;10.50;9.50;;;12.70;99.90;;;;;;5154731;27;20539;-57
2022/05/05 03:47:26;;;;;;;10.73;9.63;;;12.60;99.90;;;;;;5155750;27;20444;-57
2022/05/05 03:49:55;;;;;;;10.50;9.50;;;12.60;99.90;;;;;;5158959;27;20467;-58
2022/05/05 03:52:22;;;;;;;12.20;11.00;;;12.70;99.90;;;;;;5158954;27;20480;-57
2022/05/05 03:54:49;;;;;;;12.43;10.40;;;12.70;99.90;;;;;;5158671;27;20440;-57
2022/05/05 03:57:16;;;;;;;11.70;10.60;;;12.80;99.90;;;;;;5158831;27;20444;-57
2022/05/05 03:59:43;;;;;;;13.30;11.83;;;12.80;99.90;;;;;;5158516;27;20464;-58
2022/05/05 04:02:10;;;;;;;15.13;11.93;;;12.80;99.90;;;;;;5158779;27;20488;-57
2022/05/05 04:04:38;;;;;;;15.50;11.43;;;12.90;99.90;;;;;;5158337;27;20445;-57
2022/05/05 04:07:06;;;;;;;13.83;12.37;;;12.90;99.90;;;;;;5158223;27;20441;-57
2022/05/05 04:09:33;;;;;;;16.00;13.23;;;12.90;99.90;;;;;;5158234;27;20830;-58
2022/05/05 04:12:00;;;;;;;16.57;14.97;;;12.90;99.90;;;;;;5158295;27;20814;-58
2022/05/05 04:14:27;;;;;;;16.40;14.60;;;13.00;99.90;;;;;;5158616;27;20448;-58
2022/05/05 04:16:55;;;;;;;17.33;15.60;;;12.90;99.90;;;;;;5158427;27;20443;-57
2022/05/05 04:19:22;;;;;;;17.10;15.00;;;12.90;99.90;;;;;;5158025;27;20979;-57
2022/05/05 04:21:49;;;;;;;19.30;16.43;;;12.60;99.90;;;;;;5158507;27;20796;-57
2022/05/05 04:24:17;;;;;;;23.17;15.73;;;12.60;99.90;;;;;;5158366;27;20464;-58
2022/05/05 04:26:46;;;;;;;17.23;14.83;;;12.70;99.90;;;;;;5158288;27;20445;-57
2022/05/05 04:29:13;;;;;;;17.63;15.73;;;12.80;99.90;;;;;;5157853;27;20484;-58
2022/05/05 04:31:42;;;;;;;17.27;14.80;;;12.80;99.90;;;;;;5158072;27;20493;-57
2022/05/05 04:34:10;;;;;;;18.77;16.63;;;12.80;99.90;;;;;;5158186;27;20448;-57
2022/05/05 04:36:37;;;;;;;17.60;15.80;;;12.70;99.90;;;;;;5157743;27;20452;-57
2022/05/05 04:39:05;;;;;;;17.63;15.27;;;12.80;99.90;;;;;;5158335;27;20564;-57
2022/05/05 04:41:34;;;;;;;17.97;16.03;;;12.70;99.90;;;;;;5157677;27;20452;-57
2022/05/05 04:44:01;;;;;;;16.07;14.53;;;12.70;99.90;;;;;;5157582;27;20437;-57
2022/05/05 04:46:28;;;;;;;17.13;15.43;;;12.80;99.90;;;;;;5157625;27;21007;-57
2022/05/05 04:48:56;;;;;;;18.03;16.20;;;12.80;99.90;;;;;;5157457;27;20496;-57
2022/05/05 04:51:23;;;;;;;24.23;16.63;;;12.90;99.90;;;;;;5157351;27;20484;-58
2022/05/05 04:53:50;;;;;;;17.27;15.43;;;12.90;99.90;;;;;;5157449;27;20447;-57
2022/05/05 04:56:17;;;;;;;19.63;17.07;;;12.80;99.90;;;;;;5157315;27;20448;-56
2022/05/05 04:58:46;;;;;;;17.57;15.87;;;12.80;99.90;;;;;;5157392;27;20496;-58
2022/05/05 05:01:13;;;;;;;19.00;16.13;;;12.90;99.90;;;;;;5157453;27;20851;-57
2022/05/05 05:03:40;;;;;;;21.27;16.50;;;12.90;99.90;;;;;;5157196;27;20445;-57
2022/05/05 05:06:10;;;;;;;17.80;15.90;;;12.90;99.90;;;;;;5157339;27;20441;-58
2022/05/05 05:08:40;;;;;;;17.63;15.50;;;13.00;99.90;;;;;;5157617;27;20495;-58
2022/05/05 05:11:07;;;;;;;17.73;15.70;;;13.00;99.90;;;;;;5157388;27;20498;-59
2022/05/05 05:13:36;;;;;;;18.57;16.60;;;12.90;99.90;;;;;;5157276;27;20943;-58
2022/05/05 05:16:06;;;;;;;17.70;15.47;;;12.80;99.90;;;;;;5156988;27;20484;-58
2022/05/05 05:18:33;;;;;;;17.67;15.87;;;12.90;99.90;;;;;;5157268;27;20516;-58
2022/05/05 05:21:00;;;;;;;18.37;16.37;;;12.90;99.90;;;;;;5156842;27;20543;-58
2022/05/05 05:23:27;;;;;;;18.73;15.83;;;12.90;99.90;;;;;;5157007;27;20888;-58
2022/05/05 05:25:55;;;;;;;18.03;16.03;;;13.00;99.90;;;;;;5157139;27;20441;-58
2022/05/05 05:28:22;;;;;;;19.03;16.77;;;13.00;99.90;;;;;;5156436;27;20560;-58
2022/05/05 05:30:49;;;;;;;17.77;15.33;;;13.00;99.90;;;;;;5156735;27;20444;-58
2022/05/05 05:33:20;;;;;;;17.47;15.77;;;13.00;99.90;;;;;;5156444;27;21065;-58
2022/05/05 05:35:48;;;;;;;17.47;15.23;;;13.10;99.90;;;;;;5156400;27;20421;-58
2022/05/05 05:38:18;;;;;;;18.60;16.20;;;13.20;99.90;;;;;;5156485;27;20551;-58
2022/05/05 05:40:46;;;;;;;20.13;15.33;;;13.30;99.90;;;;;;5156367;27;20429;-58
2022/05/05 05:43:13;;;;;;;17.03;15.23;;;13.30;99.90;;;;;;5156846;27;20497;-58
2022/05/05 05:45:43;;;;;;;19.40;15.33;;;13.40;99.90;;;;;;5156292;27;20492;-58
2022/05/05 05:48:17;;;;;;;20.10;16.00;;;13.50;99.90;;;;;;5156403;27;20543;-58
2022/05/05 05:50:44;;;;;;;16.47;14.67;;;13.40;99.90;;;;;;5156140;27;20447;-58
2022/05/05 05:53:12;;;;;;;16.03;14.33;;;13.30;99.90;;;;;;5155917;27;20927;-58
2022/05/05 05:55:39;;;;;;;16.23;14.50;;;13.20;99.90;;;;;;5156068;27;20448;-58
2022/05/05 05:58:06;;;;;;;15.50;14.00;;;13.20;99.90;;;;;;5156417;27;20460;-58
2022/05/05 06:00:33;;;;;;;16.40;14.80;;;13.30;99.90;;;;;;5155940;27;20452;-58
2022/05/05 06:05:47;;;;;;;14.70;13.30;;;13.50;99.90;;;;;;5155928;27;20494;-58
2022/05/05 06:08:14;;;;;;;16.00;13.77;;;13.60;99.90;;;;;;5156114;27;20500;-58
2022/05/05 06:10:42;;;;;;;15.60;13.60;;;13.70;99.90;;;;;;5155546;27;20441;-59
2022/05/05 06:13:10;;;;;;;14.70;13.20;;;13.80;99.90;;;;;;5155642;27;20480;-58
2022/05/05 06:15:37;;;;;;;14.40;13.10;;;13.80;99.90;;;;;;5155953;27;20824;-58
2022/05/05 06:18:05;;;;;;;13.20;11.90;;;13.80;99.90;;;;;;5156057;27;20468;-58
2022/05/05 06:20:32;;;;;;;14.80;11.33;;;13.80;99.90;;;;;;5156016;27;20977;-58
2022/05/05 06:23:01;;;;;;;12.33;11.23;;;13.60;99.90;;;;;;5155548;27;20440;-58
2022/05/05 06:25:28;;;;;;;11.20;10.27;;;13.60;99.90;;;;;;5155903;27;20531;-58
2022/05/05 06:27:58;;;;;;;11.77;10.57;;;13.60;99.90;;;;;;5155104;27;20819;-58
2022/05/05 06:30:25;;;;;;;11.87;10.67;;;13.80;99.90;;;;;;5155846;27;20454;-58
2022/05/05 06:32:53;;;;;;;11.00;10.00;;;14.00;99.90;;;;;;5155446;27;20563;-58
2022/05/05 06:35:20;;;;;;;14.20;10.17;;;14.00;99.90;;;;;;5155803;27;20876;-58
2022/05/05 06:37:50;;;;;;;11.37;10.27;;;14.00;99.90;;;;;;5155282;27;20934;-58
2022/05/05 06:40:19;;;;;;;12.03;10.93;;;14.10;99.90;;;;;;5155943;27;20483;-58
2022/05/05 06:42:48;;;;;;;11.60;10.40;;;14.20;99.90;;;;;;5155348;27;20505;-58
2022/05/05 06:45:15;;;;;;;10.33;9.23;;;14.20;99.90;;;;;;5154817;27;20452;-58
2022/05/05 06:47:43;;;;;;;11.17;10.07;;;14.30;99.90;;;;;;5155014;27;20481;-59
2022/05/05 06:50:11;;;;;;;11.40;10.50;;;14.40;99.90;;;;;;5154991;27;20448;-59
2022/05/05 06:52:38;;;;;;;11.93;10.90;;;14.20;99.90;;;;;;5154669;27;20495;-57
2022/05/05 06:55:07;;;;;;;11.57;10.43;;;14.20;99.90;;;;;;5154820;27;20478;-58
2022/05/05 06:57:36;;;;;;;11.90;10.80;;;14.10;99.90;;;;;;5155044;27;20480;-58
2022/05/05 07:00:04;;;;;;;12.00;10.80;;;14.00;99.90;;;;;;5155146;27;20489;-57
2022/05/05 07:02:30;;;;;;;11.70;10.60;;;14.30;99.90;;;;;;5155119;27;20527;-58
2022/05/05 07:07:42;;;;;;;14.07;11.00;;;14.20;99.90;;;;;;5154806;27;20926;-58
2022/05/05 07:12:56;;;;;;;14.37;11.40;;;14.00;99.90;;;;;;5154778;27;20459;-59
2022/05/05 07:15:24;;;;;;;12.93;10.97;;;14.10;99.90;;;;;;5154753;27;20444;-58
2022/05/05 07:17:51;;;;;;;12.70;10.97;;;14.30;99.90;;;;;;5154901;27;20792;-57
2022/05/05 07:20:19;;;;;;;11.30;10.20;;;14.40;99.90;;;;;;5154939;27;20449;-57
2022/05/05 07:22:47;;;;;;;15.17;9.70;;;14.50;99.90;;;;;;5156416;27;20440;-57
2022/05/05 07:25:14;;;;;;;11.20;10.17;;;14.50;99.90;;;;;;5159168;27;20451;-58
2022/05/05 07:27:42;;;;;;;11.40;10.23;;;14.40;99.90;;;;;;5159077;27;20480;-57
2022/05/05 07:30:12;;;;;;;11.80;10.70;;;14.50;99.90;;;;;;5158690;27;20477;-58
2022/05/05 07:32:39;;;;;;;11.63;10.53;;;14.80;99.90;;;;;;5158506;27;20559;-58
2022/05/05 07:35:08;;;;;;;11.37;10.17;;;14.70;99.90;;;;;;5158580;27;20523;-58
2022/05/05 07:37:39;;;;;;;11.03;10.00;;;14.90;99.90;;;;;;5158771;27;20919;-58
2022/05/05 07:40:08;;;;;;;11.03;10.03;;;14.90;99.90;;;;;;5158695;27;20425;-59
2022/05/05 07:42:37;;;;;;;10.97;9.87;;;14.90;99.90;;;;;;5158337;27;20437;-60
2022/05/05 07:45:06;;;;;;;10.53;9.53;;;15.10;99.90;;;;;;5158788;27;20440;-58
2022/05/05 07:47:35;;;;;;;11.23;10.20;;;15.00;99.90;;;;;;5158363;27;20444;-58
2022/05/05 07:50:02;;;;;;;11.97;10.70;;;14.80;99.90;;;;;;5158452;27;20450;-57
2022/05/05 07:52:30;;;;;;;12.53;10.57;;;14.70;99.90;;;;;;5158802;27;20532;-58
2022/05/05 07:54:57;;;;;;;12.77;11.50;;;14.60;99.90;;;;;;5158214;27;20927;-58
2022/05/05 07:57:24;;;;;;;11.33;10.33;;;14.60;99.90;;;;;;5158239;27;20460;-58
2022/05/05 07:59:52;;;;;;;10.87;9.87;;;14.40;99.90;;;;;;5158461;27;20551;-59
2022/05/05 08:02:19;;;;;;;13.70;12.40;;;14.60;99.90;;;;;;5158419;27;20479;-58
2022/05/05 08:04:48;;;;;;;13.57;12.37;;;14.40;99.90;;;;;;5158423;27;20805;-58
2022/05/05 08:07:15;;;;;;;11.67;10.47;;;14.40;99.90;;;;;;5157932;27;20848;-59
2022/05/05 08:09:43;;;;;;;13.27;11.30;;;14.50;99.90;;;;;;5158206;27;20986;-59
2022/05/05 08:12:11;;;;;;;13.00;11.67;;;14.80;99.90;;;;;;5158084;27;20482;-58
2022/05/05 08:14:38;;;;;;;13.33;11.93;;;14.80;99.90;;;;;;5158037;27;20437;-59
2022/05/05 08:17:06;;;;;;;11.50;10.40;;;14.70;99.90;;;;;;5158136;27;20837;-58
2022/05/05 08:19:33;;;;;;;12.53;10.80;;;14.80;99.90;;;;;;5157925;27;20804;-58
2022/05/05 08:22:02;;;;;;;13.27;11.87;;;14.90;99.90;;;;;;5158524;27;20539;-59
2022/05/05 08:30:05;;;;;;;14.40;12.53;;;14.90;99.90;;;;;;5130902;27;20461;-57
2022/05/05 08:32:33;;;;;;;13.90;12.10;;;15.00;99.90;;;;;;5157950;27;20512;-57
2022/05/05 08:35:01;;;;;;;15.30;12.30;;;15.40;99.90;;;;;;5157605;27;20445;-58
2022/05/05 08:37:29;;;;;;;16.27;12.77;;;15.60;99.90;;;;;;5157742;27;20503;-58
2022/05/05 08:39:57;;;;;;;14.37;12.87;;;15.80;99.90;;;;;;5157800;27;20528;-58
2022/05/05 08:42:24;;;;;;;13.93;12.53;;;15.50;99.90;;;;;;5157855;27;20459;-58
2022/05/05 08:44:52;;;;;;;14.83;13.53;;;15.40;99.90;;;;;;5157821;27;21030;-58
2022/05/05 08:47:24;;;;;;;14.50;12.93;;;15.50;99.90;;;;;;5157467;27;20758;-58
2022/05/05 08:49:58;;;;;;;14.93;13.43;;;15.70;99.90;;;;;;5157479;27;20472;-58
2022/05/05 08:52:32;;;;;;;14.23;12.93;;;15.80;99.90;;;;;;5157348;27;20468;-59
2022/05/05 08:55:00;;;;;;;14.87;13.40;;;15.90;99.90;;;;;;5157497;27;20421;-58
2022/05/05 08:57:28;;;;;;;17.17;15.37;;;15.90;99.90;;;;;;5157521;27;20456;-59
2022/05/05 08:59:56;;;;;;;14.40;13.10;;;15.60;99.90;;;;;;5156896;27;20942;-58
2022/05/05 09:02:24;;;;;;;17.17;15.37;;;16.00;99.90;;;;;;5157531;27;20808;-58
2022/05/05 09:04:51;;;;;;;16.90;15.33;;;15.90;99.90;;;;;;5157590;27;20445;-58
2022/05/05 09:07:18;;;;;;;17.87;16.07;;;15.60;99.90;;;;;;5157026;27;20456;-58
2022/05/05 09:09:50;;;;;;;18.00;15.83;;;15.50;99.90;;;;;;5156893;27;20555;-58
2022/05/05 09:12:22;;;;;;;16.33;14.30;;;15.50;99.90;;;;;;5156736;27;20421;-58
2022/05/05 09:14:53;;;;;;;16.53;14.93;;;15.70;99.90;;;;;;5157036;27;20426;-58
2022/05/05 09:17:21;;;;;;;18.13;16.23;;;15.90;99.90;;;;;;5156764;27;20948;-58
2022/05/05 09:19:50;;;;;;;19.10;17.40;;;15.90;99.90;;;;;;5156334;27;20503;-59
2022/05/05 09:22:20;;;;;;;17.30;15.70;;;15.90;99.90;;;;;;5157132;27;20476;-58
2022/05/05 09:24:51;;;;;;;17.93;16.10;;;15.80;99.90;;;;;;5156839;27;20445;-59
2022/05/05 09:27:23;;;;;;;18.33;15.10;;;15.80;99.90;;;;;;5156562;27;20436;-58
2022/05/05 09:30:06;;;;;;;18.40;16.60;;;15.70;99.90;;;;;;5156512;27;20563;-59
2022/05/05 09:32:35;;;;;;;18.30;16.43;;;15.80;99.90;;;;;;5156694;27;20472;-59
2022/05/05 09:35:05;;;;;;;17.67;16.00;;;15.60;99.90;;;;;;5156459;27;20856;-58
2022/05/05 09:37:34;;;;;;;15.53;14.07;;;15.90;99.90;;;;;;5156205;27;20484;-58
2022/05/05 09:40:06;;;;;;;20.23;17.27;;;15.80;99.90;;;;;;5156813;27;20830;-58
2022/05/05 09:42:42;;;;;;;17.63;15.97;;;15.60;99.90;;;;;;5156746;27;20425;-58
2022/05/05 09:45:18;;;;;;;19.10;17.10;;;15.60;99.90;;;;;;5155761;27;20421;-58
2022/05/05 09:47:50;;;;;;;19.43;15.40;;;15.50;99.90;;;;;;5156471;27;20815;-58
2022/05/05 09:50:20;;;;;;;19.77;17.67;;;15.40;99.90;;;;;;5156375;27;20460;-58
2022/05/05 09:58:35;;;;;;;18.13;15.67;;;15.70;99.90;;;;;;5147331;27;20448;-58
2022/05/05 10:01:09;;;;;;;21.70;19.27;;;15.90;99.90;;;;;;5156121;27;20516;-59
2022/05/05 10:04:03;;;;;;;17.80;16.10;;;16.00;99.90;;;;;;5155882;27;20429;-59
2022/05/05 10:06:36;;;;;;;20.13;16.20;;;16.00;99.90;;;;;;5156042;27;20417;-58
2022/05/05 10:09:05;;;;;;;18.30;16.60;;;16.00;99.90;;;;;;5156297;27;20981;-59
2022/05/05 10:11:33;;;;;;;20.27;18.13;;;16.10;99.90;;;;;;5155950;27;20448;-61
2022/05/05 10:14:03;;;;;;;19.07;17.20;;;16.20;99.90;;;;;;5155274;27;20529;-58
2022/05/05 10:16:31;;;;;;;17.70;16.10;;;16.30;99.90;;;;;;5155880;27;20449;-58
2022/05/05 10:18:59;;;;;;;19.47;17.57;;;16.40;99.90;;;;;;5155845;27;20465;-59
2022/05/05 10:21:38;;;;;;;20.27;16.30;;;16.50;99.90;;;;;;5155531;27;20449;-58
2022/05/05 10:24:11;;;;;;;19.93;17.80;;;16.60;99.90;;;;;;5155652;27;20461;-58
2022/05/05 10:26:39;;;;;;;20.07;17.93;;;16.30;99.90;;;;;;5155625;27;20512;-58
2022/05/05 10:29:35;;;;;;;19.30;16.93;;;16.40;99.90;;;;;;5155291;27;20986;-59
2022/05/05 10:32:10;;;;;;;20.13;18.03;;;16.40;99.90;;;;;;5155893;27;20425;-58
2022/05/05 10:34:39;;;;;;;20.17;18.37;;;16.40;99.90;;;;;;5155371;27;21158;-58
2022/05/05 10:37:12;;;;;;;22.70;20.30;;;16.40;99.90;;;;;;5155101;27;20459;-57
2022/05/05 10:39:47;;;;;;;21.20;19.20;;;16.60;99.90;;;;;;5155097;27;20465;-58
2022/05/05 10:42:20;;;;;;;21.43;19.37;;;16.80;99.90;;;;;;5155481;27;20979;-58
2022/05/05 10:45:13;;;;;;;20.50;18.70;;;16.70;99.90;;;;;;5155119;27;20493;-59
2022/05/05 10:48:18;;;;;;;19.80;17.70;;;16.50;99.90;;;;;;5155029;27;20421;-58
2022/05/05 10:50:56;;;;;;;22.03;18.27;;;16.70;99.90;;;;;;5155387;27;20421;-59
2022/05/05 10:53:42;;;;;;;23.27;18.73;;;16.80;99.90;;;;;;5155063;27;20469;-58
2022/05/05 10:56:30;;;;;;;19.90;17.90;;;17.00;99.90;;;;;;5155331;27;20425;-59
2022/05/05 10:59:08;;;;;;;21.17;18.10;;;17.00;99.90;;;;;;5154824;27;20461;-58
2022/05/05 11:02:01;;;;;;;23.47;18.43;;;16.80;99.90;;;;;;5154772;27;20445;-58
2022/05/05 11:04:32;;;;;;;18.60;16.80;;;16.60;99.90;;;;;;5154899;27;20432;-58
2022/05/05 11:07:30;;;;;;;20.33;18.30;;;16.60;99.90;;;;;;5154574;27;20513;-59
2022/05/05 11:10:01;;;;;;;20.23;18.13;;;16.70;99.90;;;;;;5155134;27;20449;-59
2022/05/05 11:12:34;;;;;;;20.47;18.27;;;16.60;99.90;;;;;;5154898;27;20458;-57
2022/05/05 11:23:31;;;;;;;20.67;18.77;;;16.30;99.90;;;;;;5154815;27;20405;-58
2022/05/05 11:26:00;;;;;;;21.80;19.77;;;16.40;99.90;;;;;;5154592;27;20445;-58
2022/05/05 11:28:30;;;;;;;23.00;20.80;;;16.40;99.90;;;;;;5154358;27;20472;-58
2022/05/05 11:30:57;;;;;;;20.97;18.87;;;16.10;99.90;;;;;;5154558;27;20425;-57
2022/05/05 11:33:26;;;;;;;26.87;23.03;;;16.10;99.90;;;;;;5154565;27;20529;-57
2022/05/05 11:35:58;;;;;;;24.53;20.90;;;16.00;99.90;;;;;;5154350;27;20539;-57
2022/05/05 11:38:28;;;;;;;24.67;22.17;;;15.80;99.90;;;;;;5154561;27;20476;-58
2022/05/05 11:41:04;;;;;;;23.20;20.80;;;15.80;99.90;;;;;;5154503;27;20875;-58
2022/05/05 11:46:16;;;;;;;22.57;20.37;;;15.80;99.90;;;;;;5122397;27;20618;-58
2022/05/05 11:48:52;;;;;;;29.30;22.30;;;15.80;99.90;;;;;;5154325;27;20996;-57
2022/05/05 11:51:22;;;;;;;26.77;22.83;;;15.60;99.90;;;;;;5154540;27;20421;-58
2022/05/05 11:53:50;;;;;;;27.67;22.07;;;15.50;99.90;;;;;;5154642;27;20465;-58
2022/05/05 11:56:18;;;;;;;26.87;22.93;;;15.60;99.90;;;;;;5154661;27;20504;-58
2022/05/05 12:01:42;;;;;;;29.33;24.57;;;15.70;99.90;;;;;;5154308;27;20411;-58
2022/05/05 12:04:12;;;;;;;25.93;23.23;;;15.70;99.90;;;;;;5154193;27;20899;-58
2022/05/05 12:06:41;;;;;;;27.33;24.50;;;15.50;99.90;;;;;;5154208;27;20903;-58
2022/05/05 12:09:09;;;;;;;26.47;23.97;;;15.50;99.90;;;;;;5156455;27;20567;-59
2022/05/05 12:11:38;;;;;;;29.07;25.43;;;15.60;99.90;;;;;;5158039;27;20488;-58
2022/05/05 12:14:07;;;;;;;27.13;23.30;;;15.50;99.90;;;;;;5157472;27;20480;-58
2022/05/05 12:16:36;;;;;;;27.80;22.80;;;15.40;99.90;;;;;;5157729;27;20939;-58
2022/05/05 12:19:12;;;;;;;26.77;23.90;;;15.30;99.90;;;;;;5158077;27;20468;-58
2022/05/05 12:21:52;;;;;;;26.90;24.10;;;15.20;99.90;;;;;;5157907;27;20421;-58
2022/05/05 12:24:21;;;;;;;28.17;25.17;;;15.00;99.90;;;;;;5157722;27;20429;-58
2022/05/05 12:26:49;;;;;;;28.40;25.03;;;15.20;99.90;;;;;;5157680;27;20927;-58
2022/05/05 12:29:19;;;;;;;28.07;24.97;;;15.30;99.90;;;;;;5157982;27;20882;-58
2022/05/05 12:31:54;;;;;;;31.10;26.40;;;15.50;99.90;;;;;;5157577;27;21118;-58
2022/05/05 12:34:25;;;;;;;28.63;24.80;;;15.50;99.90;;;;;;5157752;27;20472;-58
2022/05/05 12:37:15;;;;;;;30.50;26.07;;;15.70;99.90;;;;;;5158062;27;20786;-58
2022/05/05 12:39:58;;;;;;;32.40;26.47;;;15.70;99.90;;;;;;5157506;27;20456;-58
2022/05/05 12:42:38;;;;;;;28.00;25.10;;;15.60;99.90;;;;;;5157826;27;20425;-57
2022/05/05 12:45:06;;;;;;;30.43;24.80;;;15.60;99.90;;;;;;5157422;27;20420;-58
2022/05/05 12:47:34;;;;;;;28.23;23.30;;;15.70;99.90;;;;;;5157293;27;20441;-57
2022/05/05 12:50:03;;;;;;;26.80;23.50;;;15.70;99.90;;;;;;5157310;27;20478;-57
2022/05/05 13:01:05;;;;;;;28.27;22.63;;;16.50;99.90;;;;;;5073160;28;20513;-58
2022/05/05 13:03:32;;;;;;;26.17;21.20;;;16.40;99.90;;;;;;5072937;28;20441;-57
2022/05/05 13:06:01;;;;;;;26.33;22.93;;;16.30;99.90;;;;;;5109936;27;20448;-58
2022/05/05 13:08:29;;;;;;;26.37;21.70;;;16.10;99.90;;;;;;5157223;27;20460;-59
2022/05/05 13:10:56;;;;;;;27.20;22.37;;;16.10;99.90;;;;;;5156830;27;20512;-59
2022/05/05 13:13:23;;;;;;;28.13;23.70;;;16.00;99.90;;;;;;5156943;27;20440;-59
2022/05/05 13:15:51;;;;;;;32.57;24.40;;;15.90;99.90;;;;;;5156756;27;20536;-58
2022/05/05 13:18:18;;;;;;;28.13;23.87;;;16.00;99.90;;;;;;5156689;27;20465;-58
2022/05/05 13:20:45;;;;;;;26.73;22.40;;;16.20;99.90;;;;;;5155819;27;20972;-58
2022/05/05 13:23:14;;;;;;;30.27;25.87;;;16.50;99.90;;;;;;5156858;27;20441;-59
2022/05/05 13:25:42;;;;;;;26.13;22.27;;;16.60;99.90;;;;;;5156968;27;20437;-59
2022/05/05 13:28:09;;;;;;;26.50;23.27;;;16.80;99.90;;;;;;5156633;27;20473;-59
2022/05/05 13:30:36;;;;;;;24.37;21.87;;;17.00;99.90;;;;;;5156760;27;20477;-58